Time;durP1;ratioP1;P1;durP2;ratioP2;P2;SDS_P1;SDS_P2;PMS_P1;PMS_P2;Temp;Humidity;BMP_temperature;BMP_pressure;BME280_temperature;BME280_humidity;BME280_pressure;Samples;Min_cycle;Max_cycle;Signal;HPM_P1;HPM_P2
2021/06/29 00:02:25;;;;;;;3.60;2.60;;;;;;;;;;5051157;28;20056;-61
2021/06/29 00:04:54;;;;;;;5.50;2.58;;;;;;;;;;5051743;28;20060;-65
2021/06/29 00:07:20;;;;;;;5.82;2.58;;;;;;;;;;5051472;28;20083;-62
2021/06/29 00:10:16;;;;;;;4.88;2.70;;;;;;;;;;4995408;28;20128;-72
2021/06/29 00:12:42;;;;;;;4.85;2.50;;;;;;;;;;4989498;28;20508;-61
2021/06/29 00:15:09;;;;;;;4.65;2.53;;;;;;;;;;4990265;28;20034;-70
2021/06/29 00:17:35;;;;;;;2.97;2.45;;;;;;;;;;4990390;28;20485;-72
2021/06/29 00:20:01;;;;;;;4.63;2.60;;;;;;;;;;4991317;28;20034;-70
2021/06/29 00:22:27;;;;;;;3.28;2.42;;;;;;;;;;4988845;28;20106;-65
2021/06/29 00:24:53;;;;;;;3.15;2.65;;;;;;;;;;4988738;28;20516;-74
2021/06/29 00:27:19;;;;;;;5.20;2.92;;;;;;;;;;4987822;28;20042;-70
2021/06/29 00:29:45;;;;;;;4.30;2.90;;;;;;;;;;4989238;28;20027;-73
2021/06/29 00:32:12;;;;;;;4.88;2.60;;;;;;;;;;4990106;28;20133;-73
2021/06/29 00:34:38;;;;;;;4.50;2.63;;;;;;;;;;4990542;28;20065;-64
2021/06/29 00:37:04;;;;;;;3.38;2.63;;;;;;;;;;4989794;28;20664;-67
2021/06/29 00:39:30;;;;;;;4.90;2.67;;;;;;;;;;4990022;28;20543;-61
2021/06/29 00:41:56;;;;;;;4.22;2.50;;;;;;;;;;4999289;28;20104;-60
2021/06/29 00:44:23;;;;;;;2.75;2.50;;;;;;;;;;5026300;28;20077;-67
2021/06/29 00:46:51;;;;;;;5.10;2.80;;;;;;;;;;5056564;28;20033;-73
2021/06/29 00:49:17;;;;;;;5.40;2.60;;;;;;;;;;5056174;28;20068;-61
2021/06/29 00:51:44;;;;;;;4.20;2.60;;;;;;;;;;5054434;28;20025;-61
2021/06/29 00:54:11;;;;;;;2.67;2.42;;;;;;;;;;5055458;28;20029;-73
2021/06/29 00:56:37;;;;;;;3.38;2.60;;;;;;;;;;5054484;28;20498;-63
2021/06/29 00:59:04;;;;;;;4.13;2.80;;;;;;;;;;5055206;28;20540;-74
2021/06/29 01:01:30;;;;;;;5.00;2.63;;;;;;;;;;5053768;28;20029;-69
2021/06/29 01:03:56;;;;;;;2.97;2.38;;;;;;;;;;5054968;28;20029;-62
2021/06/29 01:06:22;;;;;;;4.32;2.70;;;;;;;;;;5054320;28;20029;-64
2021/06/29 01:08:48;;;;;;;3.58;2.33;;;;;;;;;;5050510;28;20232;-62
2021/06/29 01:11:14;;;;;;;4.40;2.65;;;;;;;;;;5054751;28;20041;-76
2021/06/29 01:13:45;;;;;;;4.30;2.50;;;;;;;;;;5054601;28;20037;-70
2021/06/29 01:16:11;;;;;;;3.33;2.50;;;;;;;;;;5023758;28;20051;-63
2021/06/29 01:18:39;;;;;;;3.13;2.47;;;;;;;;;;5054593;28;20047;-61
2021/06/29 01:21:05;;;;;;;3.25;2.45;;;;;;;;;;5051457;28;20437;-76
2021/06/29 01:23:32;;;;;;;4.88;2.60;;;;;;;;;;5051972;28;20036;-68
2021/06/29 01:26:06;;;;;;;5.78;2.67;;;;;;;;;;5054923;28;20021;-76
2021/06/29 01:28:35;;;;;;;6.63;2.65;;;;;;;;;;5054548;28;20140;-63
2021/06/29 01:31:10;;;;;;;4.38;2.92;;;;;;;;;;5038155;28;20075;-67
2021/06/29 01:33:36;;;;;;;4.72;2.63;;;;;;;;;;5054832;28;20021;-75
2021/06/29 01:36:02;;;;;;;7.45;2.70;;;;;;;;;;5053699;28;20029;-69
2021/06/29 01:38:29;;;;;;;5.32;2.67;;;;;;;;;;5053896;28;20104;-65
2021/06/29 01:40:55;;;;;;;3.85;2.80;;;;;;;;;;5059858;28;20112;-71
2021/06/29 01:43:25;;;;;;;4.60;2.70;;;;;;;;;;5053967;28;20057;-70
2021/06/29 01:45:54;;;;;;;2.88;2.47;;;;;;;;;;5054868;28;20373;-70
2021/06/29 01:48:26;;;;;;;3.15;2.40;;;;;;;;;;5054183;28;20017;-69
2021/06/29 01:50:53;;;;;;;3.88;2.50;;;;;;;;;;5054265;28;20030;-76
2021/06/29 01:53:19;;;;;;;4.05;2.53;;;;;;;;;;5051998;28;20075;-61
2021/06/29 01:55:46;;;;;;;3.17;2.63;;;;;;;;;;5050770;28;20028;-61
2021/06/29 01:58:14;;;;;;;3.58;2.72;;;;;;;;;;5053766;28;20037;-75
2021/06/29 02:00:41;;;;;;;3.33;2.60;;;;;;;;;;5053576;28;20039;-69
2021/06/29 02:03:07;;;;;;;4.53;2.90;;;;;;;;;;5053695;28;20028;-70
2021/06/29 02:05:33;;;;;;;3.05;2.60;;;;;;;;;;5055974;28;20029;-63
2021/06/29 02:07:59;;;;;;;3.75;2.85;;;;;;;;;;5054379;28;20474;-71
2021/06/29 02:10:25;;;;;;;4.03;2.80;;;;;;;;;;5045188;28;20542;-78
2021/06/29 02:12:52;;;;;;;4.00;2.90;;;;;;;;;;5046068;28;20601;-68
2021/06/29 02:15:20;;;;;;;3.30;2.70;;;;;;;;;;5050358;28;20029;-74
2021/06/29 02:17:49;;;;;;;3.53;2.70;;;;;;;;;;5054041;28;20104;-72
2021/06/29 02:20:17;;;;;;;8.07;2.65;;;;;;;;;;5036608;28;20051;-75
2021/06/29 02:22:45;;;;;;;3.47;2.70;;;;;;;;;;5052876;28;20022;-73
2021/06/29 02:25:11;;;;;;;3.53;2.63;;;;;;;;;;5040604;28;20025;-71
2021/06/29 02:27:37;;;;;;;4.10;2.85;;;;;;;;;;5053671;28;20032;-75
2021/06/29 02:30:03;;;;;;;7.03;2.83;;;;;;;;;;5053719;28;20029;-62
2021/06/29 02:32:30;;;;;;;3.78;2.60;;;;;;;;;;5053104;28;20029;-66
2021/06/29 02:34:56;;;;;;;3.08;2.50;;;;;;;;;;5052942;28;20048;-75
2021/06/29 02:37:22;;;;;;;3.05;2.45;;;;;;;;;;5053400;28;20027;-70
2021/06/29 02:39:48;;;;;;;4.63;2.72;;;;;;;;;;5053664;28;20786;-62
2021/06/29 02:42:14;;;;;;;3.88;2.90;;;;;;;;;;5052881;28;20436;-63
2021/06/29 02:44:42;;;;;;;5.30;2.75;;;;;;;;;;5053282;28;20578;-64
2021/06/29 02:47:08;;;;;;;3.72;2.75;;;;;;;;;;5052986;28;20017;-76
2021/06/29 02:49:34;;;;;;;5.05;2.90;;;;;;;;;;5052637;28;20070;-64
2021/06/29 02:52:00;;;;;;;4.90;3.00;;;;;;;;;;5053043;28;20025;-64
2021/06/29 02:54:26;;;;;;;4.57;2.67;;;;;;;;;;5052587;28;20037;-71
2021/06/29 02:56:53;;;;;;;3.22;2.60;;;;;;;;;;5052744;28;20032;-63
2021/06/29 02:59:19;;;;;;;3.60;2.60;;;;;;;;;;5036169;28;20099;-66
2021/06/29 03:01:45;;;;;;;3.38;2.47;;;;;;;;;;5052365;28;20104;-64
2021/06/29 03:04:11;;;;;;;4.90;2.63;;;;;;;;;;5052538;28;20486;-73
2021/06/29 03:06:38;;;;;;;3.58;2.55;;;;;;;;;;5061228;28;20090;-76
2021/06/29 03:09:05;;;;;;;3.50;2.60;;;;;;;;;;5056975;28;20029;-78
2021/06/29 03:11:32;;;;;;;5.25;2.67;;;;;;;;;;5050091;28;20045;-76
2021/06/29 03:13:58;;;;;;;3.50;2.67;;;;;;;;;;5052561;28;20029;-73
2021/06/29 03:16:24;;;;;;;2.97;2.67;;;;;;;;;;5051986;28;20025;-77
2021/06/29 03:18:51;;;;;;;3.30;2.67;;;;;;;;;;5052278;28;20036;-71
2021/06/29 03:21:17;;;;;;;3.03;2.60;;;;;;;;;;5049840;28;20478;-77
2021/06/29 03:23:43;;;;;;;2.95;2.60;;;;;;;;;;5040815;28;20479;-74
2021/06/29 03:26:09;;;;;;;4.70;2.88;;;;;;;;;;5052135;28;20517;-66
2021/06/29 03:28:36;;;;;;;3.97;2.85;;;;;;;;;;5052193;28;20064;-63
2021/06/29 03:31:02;;;;;;;4.07;2.90;;;;;;;;;;5056321;28;20384;-71
2021/06/29 03:33:29;;;;;;;4.28;3.00;;;;;;;;;;5045873;28;20038;-76
2021/06/29 03:35:55;;;;;;;6.22;3.17;;;;;;;;;;5053303;28;20207;-77
2021/06/29 03:53:37;;;;;;;7.85;3.83;;;;;;;;;;5142360;27;20389;-63
2021/06/29 03:56:03;;;;;;;6.80;3.80;;;;;;;;;;5122480;28;20035;-62
2021/06/29 03:58:29;;;;;;;9.63;4.10;;;;;;;;;;5124526;28;20032;-66
2021/06/29 04:00:55;;;;;;;9.00;3.90;;;;;;;;;;5128476;28;20023;-66
2021/06/29 04:03:21;;;;;;;7.88;4.10;;;;;;;;;;5127772;28;20085;-63
2021/06/29 04:05:47;;;;;;;9.93;4.25;;;;;;;;;;5126569;28;20023;-68
2021/06/29 04:08:14;;;;;;;11.48;4.38;;;;;;;;;;5129932;28;20055;-66
2021/06/29 04:10:40;;;;;;;15.88;4.10;;;;;;;;;;5129153;28;20019;-62
2021/06/29 04:13:06;;;;;;;13.55;4.30;;;;;;;;;;5125308;28;20024;-63
2021/06/29 04:15:32;;;;;;;8.30;3.85;;;;;;;;;;5127471;28;20042;-71
2021/06/29 04:17:59;;;;;;;12.10;4.05;;;;;;;;;;5128461;28;20023;-71
2021/06/29 04:20:25;;;;;;;9.40;4.00;;;;;;;;;;5129107;28;20492;-69
2021/06/29 04:22:51;;;;;;;11.05;4.80;;;;;;;;;;5123674;28;20105;-70
2021/06/29 04:25:17;;;;;;;6.63;3.88;;;;;;;;;;5129744;28;20084;-73
2021/06/29 04:27:43;;;;;;;11.40;4.40;;;;;;;;;;5097012;28;20040;-72
2021/06/29 04:30:09;;;;;;;10.25;4.25;;;;;;;;;;5129684;28;20072;-63
2021/06/29 04:32:36;;;;;;;10.73;4.35;;;;;;;;;;5125184;28;20011;-72
2021/06/29 04:35:02;;;;;;;11.63;4.40;;;;;;;;;;5123561;28;20031;-66
2021/06/29 04:37:28;;;;;;;11.25;4.22;;;;;;;;;;5129236;28;20027;-73
2021/06/29 04:39:54;;;;;;;10.93;4.20;;;;;;;;;;5127416;28;20102;-76
2021/06/29 04:42:20;;;;;;;8.52;4.90;;;;;;;;;;5122731;28;20111;-64
2021/06/29 04:44:46;;;;;;;13.90;4.68;;;;;;;;;;5106535;28;20473;-72
2021/06/29 04:47:12;;;;;;;8.27;3.90;;;;;;;;;;5104817;28;20035;-64
2021/06/29 04:49:38;;;;;;;11.68;4.38;;;;;;;;;;5105533;28;20023;-74
2021/06/29 04:52:05;;;;;;;13.13;4.40;;;;;;;;;;5080132;28;20036;-74
2021/06/29 04:54:31;;;;;;;12.07;4.18;;;;;;;;;;5088709;28;20035;-74
2021/06/29 04:56:57;;;;;;;10.73;4.05;;;;;;;;;;5091906;28;20032;-66
2021/06/29 04:59:23;;;;;;;18.60;4.90;;;;;;;;;;5091868;28;20158;-63
2021/06/29 05:01:49;;;;;;;11.85;4.70;;;;;;;;;;5092286;28;20044;-64
2021/06/29 05:04:15;;;;;;;27.02;5.25;;;;;;;;;;5093881;28;20040;-71
2021/06/29 05:06:41;;;;;;;12.90;4.55;;;;;;;;;;5093594;28;20058;-63
2021/06/29 05:09:07;;;;;;;16.10;4.72;;;;;;;;;;5091272;28;20020;-74
2021/06/29 05:11:33;;;;;;;9.10;4.80;;;;;;;;;;5091928;28;20035;-69
2021/06/29 05:13:59;;;;;;;25.83;6.18;;;;;;;;;;5092501;28;20035;-68
2021/06/29 05:16:26;;;;;;;12.55;5.18;;;;;;;;;;5093495;28;20024;-74
2021/06/29 05:18:52;;;;;;;10.52;4.63;;;;;;;;;;5093032;28;20074;-70
2021/06/29 05:21:18;;;;;;;9.85;5.13;;;;;;;;;;5089870;28;20036;-66
2021/06/29 05:23:44;;;;;;;12.40;4.75;;;;;;;;;;5093064;28;20441;-73
2021/06/29 05:26:10;;;;;;;9.05;4.93;;;;;;;;;;5092842;28;20052;-64
2021/06/29 05:28:36;;;;;;;8.55;4.57;;;;;;;;;;5092780;28;20024;-68
2021/06/29 05:31:02;;;;;;;11.20;5.97;;;;;;;;;;5092704;28;20062;-72
2021/06/29 05:33:28;;;;;;;44.05;7.63;;;;;;;;;;5093406;28;20838;-64
2021/06/29 05:35:54;;;;;;;14.57;5.03;;;;;;;;;;5092134;28;20481;-70
2021/06/29 05:38:20;;;;;;;11.98;5.10;;;;;;;;;;5092637;28;20032;-66
2021/06/29 05:40:46;;;;;;;15.27;5.18;;;;;;;;;;5092929;28;20020;-74
2021/06/29 05:43:12;;;;;;;11.60;5.50;;;;;;;;;;5089649;28;20028;-67
2021/06/29 05:45:38;;;;;;;15.73;5.00;;;;;;;;;;5087220;28;20176;-64
2021/06/29 05:48:05;;;;;;;13.48;5.28;;;;;;;;;;5090075;28;20024;-74
2021/06/29 05:50:31;;;;;;;14.93;5.70;;;;;;;;;;5091260;28;20024;-68
2021/06/29 05:52:57;;;;;;;10.43;5.32;;;;;;;;;;5090338;28;20055;-72
2021/06/29 05:55:23;;;;;;;23.20;6.45;;;;;;;;;;5090580;28;20032;-74
2021/06/29 05:57:49;;;;;;;16.90;5.72;;;;;;;;;;5085134;28;20115;-68
2021/06/29 06:00:17;;;;;;;9.40;5.22;;;;;;;;;;5089313;28;20065;-72
2021/06/29 06:02:45;;;;;;;15.52;4.82;;;;;;;;;;5088619;28;20039;-71
2021/06/29 06:05:11;;;;;;;21.17;5.65;;;;;;;;;;5089057;28;20028;-69
2021/06/29 06:07:38;;;;;;;13.02;5.07;;;;;;;;;;5092564;28;20046;-65
2021/06/29 06:10:05;;;;;;;14.43;5.47;;;;;;;;;;5090996;28;20024;-72
2021/06/29 06:12:31;;;;;;;15.95;5.32;;;;;;;;;;5073802;28;20039;-75
2021/06/29 06:14:57;;;;;;;10.30;4.88;;;;;;;;;;5091020;28;20028;-66
2021/06/29 06:17:26;;;;;;;21.08;5.60;;;;;;;;;;5092244;28;20023;-74
2021/06/29 06:19:52;;;;;;;16.10;5.68;;;;;;;;;;5091051;28;20078;-84
2021/06/29 06:22:22;;;;;;;14.75;5.40;;;;;;;;;;5090872;28;20043;-90
2021/06/29 06:24:48;;;;;;;16.55;5.55;;;;;;;;;;5064444;28;20040;-86
2021/06/29 06:27:15;;;;;;;18.42;5.75;;;;;;;;;;5069126;28;20020;-79
2021/06/29 06:29:42;;;;;;;20.95;5.50;;;;;;;;;;5090457;28;20047;-74
2021/06/29 06:32:08;;;;;;;19.33;5.70;;;;;;;;;;5089498;28;20024;-74
2021/06/29 06:34:34;;;;;;;13.07;5.22;;;;;;;;;;5091522;28;20035;-77
2021/06/29 06:37:00;;;;;;;19.35;5.50;;;;;;;;;;5089874;28;20055;-72
2021/06/29 06:39:26;;;;;;;12.70;5.43;;;;;;;;;;5087090;28;20028;-73
2021/06/29 06:41:52;;;;;;;14.82;5.75;;;;;;;;;;5091926;28;20036;-74
2021/06/29 06:44:18;;;;;;;14.02;5.95;;;;;;;;;;5090597;28;20039;-71
2021/06/29 06:46:44;;;;;;;14.07;6.15;;;;;;;;;;5091512;28;20053;-70
2021/06/29 06:49:10;;;;;;;20.55;5.82;;;;;;;;;;5087360;28;20032;-70
2021/06/29 06:51:36;;;;;;;13.90;5.32;;;;;;;;;;5088422;28;20039;-77
2021/06/29 06:54:03;;;;;;;9.93;5.50;;;;;;;;;;5091648;28;20035;-75
2021/06/29 06:56:31;;;;;;;19.45;6.10;;;;;;;;;;5091179;28;20028;-64
2021/06/29 06:58:57;;;;;;;9.27;5.10;;;;;;;;;;5085882;28;20045;-82
2021/06/29 07:01:23;;;;;;;18.17;6.15;;;;;;;;;;5069359;28;20107;-82
2021/06/29 07:03:49;;;;;;;16.38;5.78;;;;;;;;;;5071497;28;20043;-78
2021/06/29 07:06:15;;;;;;;10.30;5.30;;;;;;;;;;5088476;28;20052;-74
2021/06/29 07:08:44;;;;;;;16.98;5.97;;;;;;;;;;5091259;28;20366;-76
2021/06/29 07:11:11;;;;;;;18.83;5.82;;;;;;;;;;5088463;28;20032;-76
2021/06/29 07:13:37;;;;;;;22.42;5.72;;;;;;;;;;5068070;28;20417;-78
2021/06/29 07:16:04;;;;;;;19.45;5.85;;;;;;;;;;5084954;28;20089;-89
2021/06/29 07:18:30;;;;;;;13.48;5.63;;;;;;;;;;5071173;28;20016;-82
2021/06/29 07:20:56;;;;;;;15.05;5.50;;;;;;;;;;5090156;28;20032;-88
2021/06/29 07:23:22;;;;;;;14.57;5.25;;;;;;;;;;5071240;28;20040;-75
2021/06/29 07:25:49;;;;;;;13.07;5.35;;;;;;;;;;5089866;28;20086;-74
2021/06/29 07:28:15;;;;;;;18.38;6.53;;;;;;;;;;5089680;28;20370;-75
2021/06/29 07:30:41;;;;;;;17.35;5.40;;;;;;;;;;5089603;28;20125;-74
2021/06/29 07:33:08;;;;;;;40.47;7.75;;;;;;;;;;5087139;28;20381;-75
2021/06/29 07:35:34;;;;;;;13.63;6.35;;;;;;;;;;5088221;28;20166;-73
2021/06/29 07:38:03;;;;;;;15.88;6.38;;;;;;;;;;5089920;28;20036;-71
2021/06/29 07:40:29;;;;;;;18.15;6.93;;;;;;;;;;5085674;28;20055;-73
2021/06/29 07:42:56;;;;;;;18.25;6.05;;;;;;;;;;5090177;28;20480;-82
2021/06/29 07:45:23;;;;;;;18.92;5.82;;;;;;;;;;5086244;28;20088;-79
2021/06/29 07:47:49;;;;;;;14.00;5.90;;;;;;;;;;5088884;28;20107;-76
2021/06/29 07:50:15;;;;;;;11.00;5.53;;;;;;;;;;5072215;28;20070;-80
2021/06/29 07:52:41;;;;;;;12.65;5.78;;;;;;;;;;5089558;28;20051;-79
2021/06/29 07:55:08;;;;;;;14.65;5.45;;;;;;;;;;5090110;28;20039;-76
2021/06/29 07:57:34;;;;;;;12.82;5.30;;;;;;;;;;5084758;28;20020;-78
2021/06/29 08:00:00;;;;;;;11.85;5.25;;;;;;;;;;5090541;28;20024;-69
2021/06/29 08:02:26;;;;;;;17.90;6.05;;;;;;;;;;5089741;28;20067;-72
2021/06/29 08:04:52;;;;;;;9.55;5.35;;;;;;;;;;5085868;28;20028;-70
2021/06/29 08:07:18;;;;;;;16.50;5.72;;;;;;;;;;5088573;28;20024;-76
2021/06/29 08:09:44;;;;;;;8.75;5.30;;;;;;;;;;5087039;28;20425;-70
2021/06/29 08:12:11;;;;;;;16.00;5.60;;;;;;;;;;5088772;28;20024;-82
2021/06/29 08:14:37;;;;;;;12.13;5.75;;;;;;;;;;5081203;28;20089;-83
2021/06/29 08:17:04;;;;;;;10.90;5.85;;;;;;;;;;5088336;28;20145;-81
2021/06/29 08:19:30;;;;;;;20.92;6.10;;;;;;;;;;5071186;28;20028;-87
2021/06/29 08:21:56;;;;;;;9.52;5.60;;;;;;;;;;5089302;28;20093;-83
2021/06/29 08:24:24;;;;;;;12.60;5.38;;;;;;;;;;5071004;28;20040;-78
2021/06/29 08:26:50;;;;;;;15.40;6.35;;;;;;;;;;5085980;28;20045;-76
2021/06/29 08:29:16;;;;;;;12.07;6.55;;;;;;;;;;5090023;28;20019;-78
2021/06/29 08:31:43;;;;;;;14.05;6.70;;;;;;;;;;5086603;28;20111;-78
2021/06/29 08:34:09;;;;;;;9.23;6.25;;;;;;;;;;5084925;28;20029;-77
2021/06/29 08:36:41;;;;;;;15.35;5.95;;;;;;;;;;5092388;28;20020;-80
2021/06/29 08:39:07;;;;;;;7.55;5.90;;;;;;;;;;5089659;28;20020;-82
2021/06/29 08:41:33;;;;;;;10.07;6.30;;;;;;;;;;5092652;28;20081;-76
2021/06/29 08:43:59;;;;;;;12.73;6.07;;;;;;;;;;5091302;28;20023;-79
2021/06/29 08:46:25;;;;;;;13.57;6.25;;;;;;;;;;5091330;28;20493;-75
2021/06/29 08:48:51;;;;;;;13.88;6.25;;;;;;;;;;5088778;28;20020;-78
2021/06/29 08:51:18;;;;;;;9.93;6.32;;;;;;;;;;5090052;28;20079;-73
2021/06/29 08:53:44;;;;;;;16.77;7.03;;;;;;;;;;5092187;28;20036;-74
2021/06/29 08:56:15;;;;;;;8.80;6.20;;;;;;;;;;5092097;28;20058;-74
2021/06/29 08:58:43;;;;;;;16.65;6.55;;;;;;;;;;5089661;28;20044;-74
2021/06/29 09:01:09;;;;;;;15.75;6.43;;;;;;;;;;5088598;28;20034;-73
2021/06/29 09:03:39;;;;;;;18.00;6.88;;;;;;;;;;5090384;28;20115;-74
2021/06/29 09:06:07;;;;;;;18.25;6.40;;;;;;;;;;5084592;28;20020;-74
2021/06/29 09:08:39;;;;;;;12.45;6.32;;;;;;;;;;5093742;28;20564;-73
2021/06/29 09:11:08;;;;;;;9.00;5.90;;;;;;;;;;5088729;28;20035;-72
2021/06/29 09:13:34;;;;;;;10.30;6.30;;;;;;;;;;5092906;28;20391;-73
2021/06/29 09:16:00;;;;;;;7.60;5.82;;;;;;;;;;5088767;28;20035;-64
2021/06/29 09:18:31;;;;;;;12.43;6.38;;;;;;;;;;5090903;28;20485;-67
2021/06/29 09:20:59;;;;;;;16.02;7.03;;;;;;;;;;5086155;28;20052;-83
2021/06/29 09:23:26;;;;;;;9.32;5.93;;;;;;;;;;5092522;28;20032;-80
2021/06/29 09:25:54;;;;;;;11.65;6.20;;;;;;;;;;5089532;28;20016;-80
2021/06/29 09:28:24;;;;;;;9.88;6.30;;;;;;;;;;5073963;28;20031;-80
2021/06/29 09:30:52;;;;;;;12.68;6.20;;;;;;;;;;5091140;28;20069;-73
2021/06/29 09:33:20;;;;;;;12.40;6.38;;;;;;;;;;5083419;28;20017;-74
2021/06/29 09:35:49;;;;;;;8.02;6.47;;;;;;;;;;5090474;28;20056;-74
2021/06/29 09:38:21;;;;;;;8.40;6.00;;;;;;;;;;5087603;28;20035;-74
2021/06/29 09:41:08;;;;;;;9.35;6.28;;;;;;;;;;5088019;28;20025;-74
2021/06/29 09:43:41;;;;;;;10.93;6.40;;;;;;;;;;5090510;28;20036;-74
2021/06/29 09:46:11;;;;;;;9.85;6.10;;;;;;;;;;5091748;28;20032;-78
2021/06/29 09:48:38;;;;;;;8.48;6.03;;;;;;;;;;5091530;28;20527;-79
2021/06/29 09:51:11;;;;;;;24.58;7.55;;;;;;;;;;5092319;28;20048;-81
2021/06/29 09:53:42;;;;;;;9.13;6.07;;;;;;;;;;5092747;28;20063;-85
2021/06/29 09:56:13;;;;;;;11.00;6.35;;;;;;;;;;5092966;28;20028;-76
2021/06/29 09:58:40;;;;;;;13.50;6.65;;;;;;;;;;5089366;28;20482;-72
2021/06/29 10:01:07;;;;;;;10.75;6.55;;;;;;;;;;5081096;28;20107;-74
2021/06/29 10:03:37;;;;;;;13.85;6.85;;;;;;;;;;5091277;28;20027;-79
2021/06/29 10:06:09;;;;;;;9.70;6.90;;;;;;;;;;5086886;28;20051;-71
2021/06/29 10:08:36;;;;;;;9.07;6.22;;;;;;;;;;5091120;28;20040;-72
2021/06/29 10:11:06;;;;;;;16.05;7.13;;;;;;;;;;5090589;28;20051;-63
2021/06/29 10:13:36;;;;;;;12.25;6.90;;;;;;;;;;5091225;28;20115;-72
2021/06/29 10:16:03;;;;;;;17.67;7.70;;;;;;;;;;5090505;28;20024;-70
2021/06/29 10:18:34;;;;;;;12.88;7.40;;;;;;;;;;5090011;28;20035;-77
2021/06/29 10:21:14;;;;;;;15.13;6.28;;;;;;;;;;5088657;28;20081;-77
2021/06/29 10:23:40;;;;;;;16.73;7.20;;;;;;;;;;5085523;28;20073;-78
2021/06/29 10:26:08;;;;;;;12.43;6.78;;;;;;;;;;5092174;28;20043;-75
2021/06/29 10:28:34;;;;;;;13.70;7.13;;;;;;;;;;5091406;28;20576;-79
2021/06/29 10:31:01;;;;;;;12.60;7.32;;;;;;;;;;5090434;28;20055;-77
2021/06/29 10:33:28;;;;;;;10.82;7.13;;;;;;;;;;5075063;28;20047;-72
2021/06/29 10:35:54;;;;;;;11.38;7.68;;;;;;;;;;5071460;28;20029;-74
2021/06/29 10:38:21;;;;;;;11.80;7.63;;;;;;;;;;5063944;28;20028;-73
2021/06/29 10:40:56;;;;;;;13.30;7.32;;;;;;;;;;5066824;28;20032;-80
2021/06/29 10:43:23;;;;;;;33.22;8.15;;;;;;;;;;5066183;28;20048;-77
2021/06/29 10:45:52;;;;;;;10.15;7.60;;;;;;;;;;5071344;28;20110;-79
2021/06/29 10:48:19;;;;;;;8.85;7.35;;;;;;;;;;5070028;28;20032;-79
2021/06/29 10:50:46;;;;;;;40.28;8.55;;;;;;;;;;5070746;28;20025;-76
2021/06/29 10:53:31;;;;;;;13.20;6.88;;;;;;;;;;5067890;28;20171;-74
2021/06/29 10:55:57;;;;;;;11.32;7.53;;;;;;;;;;5070601;28;20425;-75
2021/06/29 10:58:36;;;;;;;11.60;7.65;;;;;;;;;;5068972;28;20023;-73
2021/06/29 11:01:21;;;;;;;11.27;7.55;;;;;;;;;;5067992;28;20060;-73
2021/06/29 11:03:47;;;;;;;10.90;7.18;;;;;;;;;;5066156;28;20036;-73
2021/06/29 11:06:13;;;;;;;10.07;7.25;;;;;;;;;;5070757;28;20470;-84
2021/06/29 11:08:46;;;;;;;10.68;6.90;;;;;;;;;;5053629;28;20042;-80
2021/06/29 11:11:13;;;;;;;17.20;7.90;;;;;;;;;;5051818;28;20033;-84
2021/06/29 11:13:40;;;;;;;13.85;7.35;;;;;;;;;;5052333;28;20021;-76
2021/06/29 11:16:06;;;;;;;9.88;7.07;;;;;;;;;;5061765;28;20025;-72
2021/06/29 11:18:35;;;;;;;15.15;7.78;;;;;;;;;;5070664;28;20032;-75
2021/06/29 11:21:04;;;;;;;12.75;7.25;;;;;;;;;;5062967;28;20024;-72
2021/06/29 11:23:32;;;;;;;10.85;6.95;;;;;;;;;;5069246;28;20115;-70
2021/06/29 11:26:02;;;;;;;11.18;6.95;;;;;;;;;;5069797;28;20056;-67
2021/06/29 11:28:33;;;;;;;10.65;6.85;;;;;;;;;;5071137;28;20048;-64
2021/06/29 11:31:05;;;;;;;12.88;7.10;;;;;;;;;;5070282;28;20016;-68
2021/06/29 11:33:32;;;;;;;9.80;7.33;;;;;;;;;;5069600;28;20024;-71
2021/06/29 11:35:58;;;;;;;10.52;6.78;;;;;;;;;;5070608;28;20028;-65
2021/06/29 11:38:38;;;;;;;9.50;6.43;;;;;;;;;;5071203;28;20436;-67
2021/06/29 11:41:22;;;;;;;8.85;6.80;;;;;;;;;;5070321;28;20021;-65
2021/06/29 11:43:48;;;;;;;11.55;7.22;;;;;;;;;;5059660;28;20032;-71
2021/06/29 11:46:33;;;;;;;11.48;7.03;;;;;;;;;;5070729;28;20078;-71
2021/06/29 11:49:22;;;;;;;14.00;7.07;;;;;;;;;;5067381;28;20032;-69
2021/06/29 11:51:49;;;;;;;10.63;7.07;;;;;;;;;;5059019;28;20052;-69
2021/06/29 11:54:34;;;;;;;9.25;7.22;;;;;;;;;;5068846;28;20486;-68
2021/06/29 11:57:01;;;;;;;9.40;7.25;;;;;;;;;;5065649;28;20130;-69
2021/06/29 11:59:28;;;;;;;9.68;7.93;;;;;;;;;;5066715;28;20020;-65
2021/06/29 12:02:01;;;;;;;12.60;7.28;;;;;;;;;;5068504;28;20120;-72
2021/06/29 12:04:27;;;;;;;11.75;7.30;;;;;;;;;;5073206;28;20055;-71
2021/06/29 12:07:08;;;;;;;9.25;7.35;;;;;;;;;;5072470;28;20048;-70
2021/06/29 12:09:35;;;;;;;9.57;8.30;;;;;;;;;;5074891;28;20019;-72
2021/06/29 12:12:22;;;;;;;11.18;8.55;;;;;;;;;;5073933;28;20024;-64
2021/06/29 12:14:57;;;;;;;11.43;8.30;;;;;;;;;;5071190;28;20032;-64
2021/06/29 12:17:24;;;;;;;9.15;7.40;;;;;;;;;;5072620;28;20071;-66
2021/06/29 12:19:56;;;;;;;11.18;8.07;;;;;;;;;;5066672;28;20029;-69
2021/06/29 12:22:26;;;;;;;12.13;8.20;;;;;;;;;;5064910;28;20033;-70
2021/06/29 12:24:52;;;;;;;10.25;8.45;;;;;;;;;;5069674;28;20029;-71
2021/06/29 12:27:18;;;;;;;9.23;8.05;;;;;;;;;;5070783;28;20035;-70
2021/06/29 12:29:44;;;;;;;10.55;8.20;;;;;;;;;;5072303;28;20521;-70
2021/06/29 12:32:16;;;;;;;10.40;8.20;;;;;;;;;;5065468;28;20041;-66
2021/06/29 12:34:43;;;;;;;13.23;8.73;;;;;;;;;;5071205;28;20032;-69
2021/06/29 12:37:09;;;;;;;9.40;8.40;;;;;;;;;;5072801;28;20111;-68
2021/06/29 12:39:35;;;;;;;9.77;7.80;;;;;;;;;;5072119;28;20095;-65
2021/06/29 12:42:07;;;;;;;9.75;8.30;;;;;;;;;;5069677;28;20513;-64
2021/06/29 12:44:33;;;;;;;10.23;8.65;;;;;;;;;;5067301;28;20027;-68
2021/06/29 12:47:00;;;;;;;11.38;8.50;;;;;;;;;;5071292;28;20053;-69
2021/06/29 12:49:27;;;;;;;10.52;8.25;;;;;;;;;;5073324;28;20039;-64
2021/06/29 12:51:56;;;;;;;11.13;8.60;;;;;;;;;;5068139;28;20067;-69
2021/06/29 12:54:24;;;;;;;9.63;8.52;;;;;;;;;;5072771;28;20064;-70
2021/06/29 12:56:51;;;;;;;11.57;9.18;;;;;;;;;;5073621;28;20040;-70
2021/06/29 12:59:23;;;;;;;13.07;9.15;;;;;;;;;;5061571;28;20024;-69
2021/06/29 13:01:55;;;;;;;9.57;8.68;;;;;;;;;;5066789;28;20120;-71
2021/06/29 13:04:22;;;;;;;12.05;8.63;;;;;;;;;;5066986;28;20021;-70
2021/06/29 13:07:00;;;;;;;10.38;8.75;;;;;;;;;;5073034;28;20070;-69
2021/06/29 13:09:31;;;;;;;12.18;8.63;;;;;;;;;;5067847;28;20022;-70
2021/06/29 13:12:00;;;;;;;9.63;8.70;;;;;;;;;;5068878;28;20103;-74
2021/06/29 13:14:30;;;;;;;14.02;8.93;;;;;;;;;;5050986;28;20032;-72
2021/06/29 13:17:04;;;;;;;9.85;8.88;;;;;;;;;;5072163;28;20051;-71
2021/06/29 13:19:31;;;;;;;9.38;8.48;;;;;;;;;;5064185;28;20359;-64
2021/06/29 13:21:59;;;;;;;9.63;8.35;;;;;;;;;;5070499;28;20064;-65
2021/06/29 13:24:25;;;;;;;12.38;8.80;;;;;;;;;;5072426;28;20024;-64
2021/06/29 13:26:54;;;;;;;11.10;8.48;;;;;;;;;;5072194;28;20054;-70
2021/06/29 13:29:22;;;;;;;9.80;8.77;;;;;;;;;;5072812;28;20028;-71
2021/06/29 13:31:48;;;;;;;10.25;8.15;;;;;;;;;;5072142;28;20028;-68
2021/06/29 13:34:18;;;;;;;11.40;8.00;;;;;;;;;;5071727;28;20020;-70
2021/06/29 13:36:44;;;;;;;9.65;7.53;;;;;;;;;;5075536;28;20024;-69
2021/06/29 13:39:10;;;;;;;10.18;7.93;;;;;;;;;;5071293;28;20028;-67
2021/06/29 13:41:40;;;;;;;10.05;7.82;;;;;;;;;;5071688;28;20371;-68
2021/06/29 13:44:10;;;;;;;14.35;8.38;;;;;;;;;;5068115;28;20029;-67
2021/06/29 13:46:36;;;;;;;9.70;7.80;;;;;;;;;;5068865;28;20035;-67
2021/06/29 13:49:15;;;;;;;11.57;8.70;;;;;;;;;;5071756;28;20488;-65
2021/06/29 13:51:41;;;;;;;13.65;8.43;;;;;;;;;;5069853;28;20048;-74
2021/06/29 13:54:16;;;;;;;11.35;8.15;;;;;;;;;;5067995;28;20028;-66
2021/06/29 13:56:42;;;;;;;11.90;9.15;;;;;;;;;;5071732;28;20028;-66
2021/06/29 13:59:08;;;;;;;10.38;8.10;;;;;;;;;;5065941;28;20021;-78
2021/06/29 14:01:34;;;;;;;11.25;8.20;;;;;;;;;;5071354;28;20539;-71
2021/06/29 14:04:02;;;;;;;11.15;7.80;;;;;;;;;;5069972;28;20124;-73
2021/06/29 14:06:28;;;;;;;9.00;8.10;;;;;;;;;;5071919;28;20028;-71
2021/06/29 14:09:08;;;;;;;13.25;8.25;;;;;;;;;;5069994;28;20059;-71
2021/06/29 14:11:38;;;;;;;10.00;8.48;;;;;;;;;;5067237;28;20036;-67
2021/06/29 14:14:05;;;;;;;10.68;8.07;;;;;;;;;;5071085;28;20413;-76
2021/06/29 14:16:32;;;;;;;14.27;8.15;;;;;;;;;;5070817;28;20027;-72
2021/06/29 14:18:58;;;;;;;11.48;7.72;;;;;;;;;;5068769;28;20044;-71
2021/06/29 14:21:26;;;;;;;11.35;7.70;;;;;;;;;;5064354;28;20035;-80
2021/06/29 14:23:54;;;;;;;10.07;7.82;;;;;;;;;;5070920;28;20044;-75
2021/06/29 14:26:21;;;;;;;13.13;7.65;;;;;;;;;;5064807;28;20017;-68
2021/06/29 14:28:47;;;;;;;12.38;8.30;;;;;;;;;;5067799;28;20029;-67
2021/06/29 14:31:16;;;;;;;10.95;8.10;;;;;;;;;;5068506;28;20032;-75
2021/06/29 14:33:42;;;;;;;11.75;8.55;;;;;;;;;;5069431;28;20116;-64
2021/06/29 14:36:10;;;;;;;13.70;7.68;;;;;;;;;;5075393;28;20047;-67
2021/06/29 14:38:37;;;;;;;13.45;7.60;;;;;;;;;;5067130;28;20023;-73
2021/06/29 14:41:03;;;;;;;14.52;7.40;;;;;;;;;;5071747;28;20123;-72
2021/06/29 14:43:32;;;;;;;14.35;7.80;;;;;;;;;;5071470;28;20039;-71
2021/06/29 14:45:58;;;;;;;14.05;7.53;;;;;;;;;;5071656;28;20038;-72
2021/06/29 14:48:24;;;;;;;15.85;7.00;;;;;;;;;;5070993;28;20030;-73
2021/06/29 14:50:50;;;;;;;15.35;7.57;;;;;;;;;;5068144;28;20107;-71
2021/06/29 14:53:16;;;;;;;13.48;7.60;;;;;;;;;;5064140;28;20052;-69
2021/06/29 14:55:44;;;;;;;12.95;7.40;;;;;;;;;;5070051;28;20031;-73